sensor_id;sensor_type;location;lat;lon;timestamp;P1;durP1;ratioP1;P2;durP2;ratioP2
12768;SDS011;6448;48.916;8.990;2023-08-20T00:00:22;3.40;;;3.10;;
12768;SDS011;6448;48.916;8.990;2023-08-20T00:01:25;3.10;;;2.90;;
12768;SDS011;6448;48.916;8.990;2023-08-20T00:02:27;3.42;;;3.13;;
12768;SDS011;6448;48.916;8.990;2023-08-20T00:03:32;3.45;;;3.20;;
12768;SDS011;6448;48.916;8.990;2023-08-20T00:04:33;3.60;;;3.30;;
12768;SDS011;6448;48.916;8.990;2023-08-20T00:05:38;3.60;;;3.30;;
12768;SDS011;6448;48.916;8.990;2023-08-20T00:06:39;3.30;;;3.10;;
12768;SDS011;6448;48.916;8.990;2023-08-20T00:07:44;3.53;;;3.22;;
12768;SDS011;6448;48.916;8.990;2023-08-20T00:08:45;3.25;;;3.05;;
12768;SDS011;6448;48.916;8.990;2023-08-20T00:09:47;3.40;;;3.20;;
12768;SDS011;6448;48.916;8.990;2023-08-20T00:10:48;3.00;;;2.80;;
12768;SDS011;6448;48.916;8.990;2023-08-20T00:11:49;3.00;;;2.80;;
12768;SDS011;6448;48.916;8.990;2023-08-20T00:12:50;3.38;;;3.10;;
12768;SDS011;6448;48.916;8.990;2023-08-20T00:13:52;3.42;;;3.13;;
12768;SDS011;6448;48.916;8.990;2023-08-20T00:14:53;3.20;;;3.00;;
12768;SDS011;6448;48.916;8.990;2023-08-20T00:15:58;3.20;;;2.90;;
12768;SDS011;6448;48.916;8.990;2023-08-20T00:17:00;3.25;;;3.05;;
12768;SDS011;6448;48.916;8.990;2023-08-20T00:18:02;3.63;;;3.33;;
12768;SDS011;6448;48.916;8.990;2023-08-20T00:19:04;3.40;;;3.10;;
12768;SDS011;6448;48.916;8.990;2023-08-20T00:20:07;3.80;;;3.50;;
12768;SDS011;6448;48.916;8.990;2023-08-20T00:21:10;3.38;;;3.08;;
12768;SDS011;6448;48.916;8.990;2023-08-20T00:22:12;3.30;;;3.10;;
12768;SDS011;6448;48.916;8.990;2023-08-20T00:23:15;2.92;;;2.72;;
12768;SDS011;6448;48.916;8.990;2023-08-20T00:24:18;3.40;;;3.10;;
12768;SDS011;6448;48.916;8.990;2023-08-20T00:25:19;3.00;;;2.80;;
12768;SDS011;6448;48.916;8.990;2023-08-20T00:26:21;3.17;;;2.97;;
12768;SDS011;6448;48.916;8.990;2023-08-20T00:27:22;3.28;;;3.08;;
12768;SDS011;6448;48.916;8.990;2023-08-20T00:28:24;3.03;;;2.83;;
12768;SDS011;6448;48.916;8.990;2023-08-20T00:29:24;3.27;;;2.97;;
12768;SDS011;6448;48.916;8.990;2023-08-20T00:30:26;3.40;;;3.10;;
12768;SDS011;6448;48.916;8.990;2023-08-20T00:31:27;3.70;;;3.40;;
12768;SDS011;6448;48.916;8.990;2023-08-20T00:32:29;3.33;;;3.13;;
12768;SDS011;6448;48.916;8.990;2023-08-20T00:33:30;3.53;;;3.33;;
12768;SDS011;6448;48.916;8.990;2023-08-20T00:34:33;3.55;;;3.25;;
12768;SDS011;6448;48.916;8.990;2023-08-20T00:35:33;3.72;;;3.42;;
12768;SDS011;6448;48.916;8.990;2023-08-20T00:36:36;3.50;;;3.20;;
12768;SDS011;6448;48.916;8.990;2023-08-20T00:37:37;3.10;;;2.90;;
12768;SDS011;6448;48.916;8.990;2023-08-20T00:38:40;3.10;;;2.90;;
12768;SDS011;6448;48.916;8.990;2023-08-20T00:39:40;3.70;;;3.40;;
12768;SDS011;6448;48.916;8.990;2023-08-20T00:40:42;3.50;;;3.30;;
12768;SDS011;6448;48.916;8.990;2023-08-20T00:41:43;3.25;;;3.05;;
12768;SDS011;6448;48.916;8.990;2023-08-20T00:42:45;3.20;;;3.00;;
12768;SDS011;6448;48.916;8.990;2023-08-20T00:43:46;3.72;;;3.40;;
12768;SDS011;6448;48.916;8.990;2023-08-20T00:44:48;3.70;;;3.40;;
12768;SDS011;6448;48.916;8.990;2023-08-20T00:45:49;3.53;;;3.22;;
12768;SDS011;6448;48.916;8.990;2023-08-20T00:46:50;3.58;;;3.38;;
12768;SDS011;6448;48.916;8.990;2023-08-20T00:47:52;3.20;;;3.00;;
12768;SDS011;6448;48.916;8.990;2023-08-20T00:48:53;3.10;;;2.90;;
12768;SDS011;6448;48.916;8.990;2023-08-20T00:49:55;3.40;;;3.17;;
12768;SDS011;6448;48.916;8.990;2023-08-20T00:50:56;3.63;;;3.33;;
12768;SDS011;6448;48.916;8.990;2023-08-20T00:51:59;3.80;;;3.50;;
12768;SDS011;6448;48.916;8.990;2023-08-20T00:53:00;3.85;;;3.55;;
12768;SDS011;6448;48.916;8.990;2023-08-20T00:54:04;3.60;;;3.30;;
12768;SDS011;6448;48.916;8.990;2023-08-20T00:55:07;3.60;;;3.40;;
12768;SDS011;6448;48.916;8.990;2023-08-20T00:56:09;3.40;;;3.15;;
12768;SDS011;6448;48.916;8.990;2023-08-20T00:57:13;3.38;;;3.10;;
12768;SDS011;6448;48.916;8.990;2023-08-20T00:58:15;3.75;;;3.45;;
12768;SDS011;6448;48.916;8.990;2023-08-20T00:59:17;3.30;;;3.10;;
12768;SDS011;6448;48.916;8.990;2023-08-20T01:00:18;3.10;;;2.90;;
12768;SDS011;6448;48.916;8.990;2023-08-20T01:01:22;3.30;;;3.10;;
12768;SDS011;6448;48.916;8.990;2023-08-20T01:02:23;3.55;;;3.33;;
12768;SDS011;6448;48.916;8.990;2023-08-20T01:03:24;3.28;;;2.97;;
12768;SDS011;6448;48.916;8.990;2023-08-20T01:04:27;3.20;;;2.95;;
12768;SDS011;6448;48.916;8.990;2023-08-20T01:05:29;3.38;;;3.17;;
12768;SDS011;6448;48.916;8.990;2023-08-20T01:06:38;3.85;;;3.55;;
12768;SDS011;6448;48.916;8.990;2023-08-20T01:09:16;3.50;;;3.30;;
12768;SDS011;6448;48.916;8.990;2023-08-20T01:10:25;3.50;;;3.20;;
12768;SDS011;6448;48.916;8.990;2023-08-20T01:11:33;3.33;;;3.13;;
12768;SDS011;6448;48.916;8.990;2023-08-20T01:12:37;3.92;;;3.63;;
12768;SDS011;6448;48.916;8.990;2023-08-20T01:13:40;3.80;;;3.50;;
12768;SDS011;6448;48.916;8.990;2023-08-20T01:14:41;3.55;;;3.35;;
12768;SDS011;6448;48.916;8.990;2023-08-20T01:15:43;3.70;;;3.40;;
12768;SDS011;6448;48.916;8.990;2023-08-20T01:16:45;3.30;;;3.10;;
12768;SDS011;6448;48.916;8.990;2023-08-20T01:17:47;3.78;;;3.47;;
12768;SDS011;6448;48.916;8.990;2023-08-20T01:18:49;3.58;;;3.35;;
12768;SDS011;6448;48.916;8.990;2023-08-20T01:19:51;3.42;;;3.22;;
12768;SDS011;6448;48.916;8.990;2023-08-20T01:20:55;3.72;;;3.42;;
12768;SDS011;6448;48.916;8.990;2023-08-20T01:22:05;3.75;;;3.53;;
12768;SDS011;6448;48.916;8.990;2023-08-20T01:23:41;3.80;;;3.50;;
12768;SDS011;6448;48.916;8.990;2023-08-20T01:25:09;3.65;;;3.35;;
12768;SDS011;6448;48.916;8.990;2023-08-20T01:26:21;3.63;;;3.33;;
12768;SDS011;6448;48.916;8.990;2023-08-20T01:27:38;3.30;;;3.10;;
12768;SDS011;6448;48.916;8.990;2023-08-20T01:28:51;3.70;;;3.40;;
12768;SDS011;6448;48.916;8.990;2023-08-20T01:29:52;3.60;;;3.30;;
12768;SDS011;6448;48.916;8.990;2023-08-20T01:30:55;3.67;;;3.43;;
12768;SDS011;6448;48.916;8.990;2023-08-20T01:31:58;3.30;;;3.10;;
12768;SDS011;6448;48.916;8.990;2023-08-20T01:33:00;3.53;;;3.23;;
12768;SDS011;6448;48.916;8.990;2023-08-20T01:34:03;3.60;;;3.30;;
12768;SDS011;6448;48.916;8.990;2023-08-20T01:35:05;3.58;;;3.35;;
12768;SDS011;6448;48.916;8.990;2023-08-20T01:36:07;3.55;;;3.35;;
12768;SDS011;6448;48.916;8.990;2023-08-20T01:37:10;3.70;;;3.50;;
12768;SDS011;6448;48.916;8.990;2023-08-20T01:38:11;3.80;;;3.50;;
12768;SDS011;6448;48.916;8.990;2023-08-20T01:39:13;4.00;;;3.70;;
12768;SDS011;6448;48.916;8.990;2023-08-20T01:40:13;3.97;;;3.67;;
12768;SDS011;6448;48.916;8.990;2023-08-20T01:41:15;4.20;;;3.90;;
12768;SDS011;6448;48.916;8.990;2023-08-20T01:42:16;3.50;;;3.30;;
12768;SDS011;6448;48.916;8.990;2023-08-20T01:43:19;3.80;;;3.50;;
12768;SDS011;6448;48.916;8.990;2023-08-20T01:44:22;3.75;;;3.42;;
12768;SDS011;6448;48.916;8.990;2023-08-20T01:45:24;3.53;;;3.13;;
12768;SDS011;6448;48.916;8.990;2023-08-20T01:46:25;3.80;;;3.50;;
12768;SDS011;6448;48.916;8.990;2023-08-20T01:47:28;4.10;;;3.70;;
12768;SDS011;6448;48.916;8.990;2023-08-20T01:48:29;3.70;;;3.47;;
12768;SDS011;6448;48.916;8.990;2023-08-20T01:49:31;3.50;;;3.30;;
12768;SDS011;6448;48.916;8.990;2023-08-20T01:50:32;3.43;;;3.20;;
12768;SDS011;6448;48.916;8.990;2023-08-20T01:51:35;3.65;;;3.35;;
12768;SDS011;6448;48.916;8.990;2023-08-20T01:52:36;4.05;;;3.67;;
12768;SDS011;6448;48.916;8.990;2023-08-20T01:53:37;3.10;;;2.90;;
12768;SDS011;6448;48.916;8.990;2023-08-20T01:54:39;3.50;;;3.20;;
12768;SDS011;6448;48.916;8.990;2023-08-20T01:55:40;3.53;;;3.23;;
12768;SDS011;6448;48.916;8.990;2023-08-20T01:56:42;3.50;;;3.30;;
12768;SDS011;6448;48.916;8.990;2023-08-20T01:57:42;4.13;;;3.72;;
12768;SDS011;6448;48.916;8.990;2023-08-20T01:58:43;3.95;;;3.65;;
12768;SDS011;6448;48.916;8.990;2023-08-20T01:59:46;4.60;;;4.25;;
12768;SDS011;6448;48.916;8.990;2023-08-20T02:00:47;4.20;;;3.90;;
12768;SDS011;6448;48.916;8.990;2023-08-20T02:01:49;4.05;;;3.75;;
12768;SDS011;6448;48.916;8.990;2023-08-20T02:02:50;4.10;;;3.80;;
12768;SDS011;6448;48.916;8.990;2023-08-20T02:03:52;3.70;;;3.40;;
12768;SDS011;6448;48.916;8.990;2023-08-20T02:04:52;4.43;;;4.03;;
12768;SDS011;6448;48.916;8.990;2023-08-20T02:05:54;3.88;;;3.63;;
12768;SDS011;6448;48.916;8.990;2023-08-20T02:06:55;3.93;;;3.63;;
12768;SDS011;6448;48.916;8.990;2023-08-20T02:07:57;3.95;;;3.65;;
12768;SDS011;6448;48.916;8.990;2023-08-20T02:08:57;3.70;;;3.40;;
12768;SDS011;6448;48.916;8.990;2023-08-20T02:09:59;4.47;;;3.90;;
12768;SDS011;6448;48.916;8.990;2023-08-20T02:11:00;3.88;;;3.58;;
12768;SDS011;6448;48.916;8.990;2023-08-20T02:12:03;4.10;;;3.80;;
12768;SDS011;6448;48.916;8.990;2023-08-20T02:13:04;3.95;;;3.65;;
12768;SDS011;6448;48.916;8.990;2023-08-20T02:14:07;3.72;;;3.42;;
12768;SDS011;6448;48.916;8.990;2023-08-20T02:15:09;3.67;;;3.38;;
12768;SDS011;6448;48.916;8.990;2023-08-20T02:16:12;3.30;;;3.10;;
12768;SDS011;6448;48.916;8.990;2023-08-20T02:17:13;4.18;;;3.88;;
12768;SDS011;6448;48.916;8.990;2023-08-20T02:18:15;4.40;;;4.10;;
12768;SDS011;6448;48.916;8.990;2023-08-20T02:19:17;3.70;;;3.50;;
12768;SDS011;6448;48.916;8.990;2023-08-20T02:20:18;3.80;;;3.50;;
12768;SDS011;6448;48.916;8.990;2023-08-20T02:21:19;4.05;;;3.75;;
12768;SDS011;6448;48.916;8.990;2023-08-20T02:22:21;3.90;;;3.60;;
12768;SDS011;6448;48.916;8.990;2023-08-20T02:23:22;3.40;;;3.20;;
12768;SDS011;6448;48.916;8.990;2023-08-20T02:24:25;3.70;;;3.40;;
12768;SDS011;6448;48.916;8.990;2023-08-20T02:25:26;4.00;;;3.70;;
12768;SDS011;6448;48.916;8.990;2023-08-20T02:26:29;4.10;;;3.80;;
12768;SDS011;6448;48.916;8.990;2023-08-20T02:27:29;3.50;;;3.30;;
12768;SDS011;6448;48.916;8.990;2023-08-20T02:28:32;3.65;;;3.45;;
12768;SDS011;6448;48.916;8.990;2023-08-20T02:29:33;3.50;;;3.20;;
12768;SDS011;6448;48.916;8.990;2023-08-20T02:30:39;3.75;;;3.45;;
12768;SDS011;6448;48.916;8.990;2023-08-20T02:31:40;3.33;;;3.13;;
12768;SDS011;6448;48.916;8.990;2023-08-20T02:32:42;3.73;;;3.43;;
12768;SDS011;6448;48.916;8.990;2023-08-20T02:33:43;3.90;;;3.70;;
12768;SDS011;6448;48.916;8.990;2023-08-20T02:34:48;3.80;;;3.50;;
12768;SDS011;6448;48.916;8.990;2023-08-20T02:35:50;3.95;;;3.65;;
12768;SDS011;6448;48.916;8.990;2023-08-20T02:36:52;3.50;;;3.30;;
12768;SDS011;6448;48.916;8.990;2023-08-20T02:37:53;3.70;;;3.43;;
12768;SDS011;6448;48.916;8.990;2023-08-20T02:38:55;4.10;;;3.80;;
12768;SDS011;6448;48.916;8.990;2023-08-20T02:39:55;3.75;;;3.45;;
12768;SDS011;6448;48.916;8.990;2023-08-20T02:40:57;3.85;;;3.50;;
12768;SDS011;6448;48.916;8.990;2023-08-20T02:41:58;4.13;;;3.75;;
12768;SDS011;6448;48.916;8.990;2023-08-20T02:43:00;4.20;;;3.90;;
12768;SDS011;6448;48.916;8.990;2023-08-20T02:44:01;3.72;;;3.40;;
12768;SDS011;6448;48.916;8.990;2023-08-20T02:45:04;4.00;;;3.70;;
12768;SDS011;6448;48.916;8.990;2023-08-20T02:46:07;3.67;;;3.40;;
12768;SDS011;6448;48.916;8.990;2023-08-20T02:47:09;3.67;;;3.38;;
12768;SDS011;6448;48.916;8.990;2023-08-20T02:48:09;3.85;;;3.55;;
12768;SDS011;6448;48.916;8.990;2023-08-20T02:49:11;3.47;;;3.28;;
12768;SDS011;6448;48.916;8.990;2023-08-20T02:50:12;3.70;;;3.27;;
12768;SDS011;6448;48.916;8.990;2023-08-20T02:51:14;3.72;;;3.47;;
12768;SDS011;6448;48.916;8.990;2023-08-20T02:52:15;3.97;;;3.67;;
12768;SDS011;6448;48.916;8.990;2023-08-20T02:53:16;4.03;;;3.63;;
12768;SDS011;6448;48.916;8.990;2023-08-20T02:54:17;3.85;;;3.55;;
12768;SDS011;6448;48.916;8.990;2023-08-20T02:55:19;3.92;;;3.63;;
12768;SDS011;6448;48.916;8.990;2023-08-20T02:56:20;3.03;;;2.83;;
12768;SDS011;6448;48.916;8.990;2023-08-20T02:57:21;3.30;;;3.10;;
12768;SDS011;6448;48.916;8.990;2023-08-20T02:58:23;3.90;;;3.60;;
12768;SDS011;6448;48.916;8.990;2023-08-20T02:59:23;3.97;;;3.57;;
12768;SDS011;6448;48.916;8.990;2023-08-20T03:00:25;3.60;;;3.40;;
12768;SDS011;6448;48.916;8.990;2023-08-20T03:01:28;3.30;;;3.10;;
12768;SDS011;6448;48.916;8.990;2023-08-20T03:02:30;3.70;;;3.40;;
12768;SDS011;6448;48.916;8.990;2023-08-20T03:03:31;3.57;;;3.27;;
12768;SDS011;6448;48.916;8.990;2023-08-20T03:04:33;3.67;;;3.37;;
12768;SDS011;6448;48.916;8.990;2023-08-20T03:05:35;3.28;;;3.08;;
12768;SDS011;6448;48.916;8.990;2023-08-20T03:06:37;3.30;;;3.10;;
12768;SDS011;6448;48.916;8.990;2023-08-20T03:07:37;3.60;;;3.30;;
12768;SDS011;6448;48.916;8.990;2023-08-20T03:08:39;3.75;;;3.45;;
12768;SDS011;6448;48.916;8.990;2023-08-20T03:09:40;3.47;;;3.28;;
12768;SDS011;6448;48.916;8.990;2023-08-20T03:10:41;3.70;;;3.40;;
12768;SDS011;6448;48.916;8.990;2023-08-20T03:11:42;3.80;;;3.50;;
12768;SDS011;6448;48.916;8.990;2023-08-20T03:12:44;4.10;;;3.80;;
12768;SDS011;6448;48.916;8.990;2023-08-20T03:13:44;3.92;;;3.55;;
12768;SDS011;6448;48.916;8.990;2023-08-20T03:14:46;3.75;;;3.45;;
12768;SDS011;6448;48.916;8.990;2023-08-20T03:15:47;3.80;;;3.50;;
12768;SDS011;6448;48.916;8.990;2023-08-20T03:16:50;3.80;;;3.50;;
12768;SDS011;6448;48.916;8.990;2023-08-20T03:17:51;3.40;;;3.10;;
12768;SDS011;6448;48.916;8.990;2023-08-20T03:18:53;3.50;;;3.30;;
12768;SDS011;6448;48.916;8.990;2023-08-20T03:19:54;3.30;;;3.10;;
12768;SDS011;6448;48.916;8.990;2023-08-20T03:20:58;3.60;;;3.40;;
12768;SDS011;6448;48.916;8.990;2023-08-20T03:21:59;3.47;;;3.27;;
12768;SDS011;6448;48.916;8.990;2023-08-20T03:23:01;3.90;;;3.60;;
12768;SDS011;6448;48.916;8.990;2023-08-20T03:24:02;4.00;;;3.70;;
12768;SDS011;6448;48.916;8.990;2023-08-20T03:25:04;4.00;;;3.70;;
12768;SDS011;6448;48.916;8.990;2023-08-20T03:26:05;4.67;;;3.70;;
12768;SDS011;6448;48.916;8.990;2023-08-20T03:27:06;4.17;;;3.87;;
12768;SDS011;6448;48.916;8.990;2023-08-20T03:28:08;4.00;;;3.70;;
12768;SDS011;6448;48.916;8.990;2023-08-20T03:29:11;4.25;;;3.95;;
12768;SDS011;6448;48.916;8.990;2023-08-20T03:30:14;3.45;;;3.25;;
12768;SDS011;6448;48.916;8.990;2023-08-20T03:31:17;3.60;;;3.40;;
12768;SDS011;6448;48.916;8.990;2023-08-20T03:32:21;3.75;;;3.45;;
12768;SDS011;6448;48.916;8.990;2023-08-20T03:33:24;3.80;;;3.50;;
12768;SDS011;6448;48.916;8.990;2023-08-20T03:34:27;3.83;;;3.53;;
12768;SDS011;6448;48.916;8.990;2023-08-20T03:35:28;3.77;;;3.53;;
12768;SDS011;6448;48.916;8.990;2023-08-20T03:36:30;3.70;;;3.40;;
12768;SDS011;6448;48.916;8.990;2023-08-20T03:37:32;3.90;;;3.55;;
12768;SDS011;6448;48.916;8.990;2023-08-20T03:38:34;3.83;;;3.53;;
12768;SDS011;6448;48.916;8.990;2023-08-20T03:39:35;3.80;;;3.50;;
12768;SDS011;6448;48.916;8.990;2023-08-20T03:40:36;4.17;;;3.77;;
12768;SDS011;6448;48.916;8.990;2023-08-20T03:41:37;3.77;;;3.40;;
12768;SDS011;6448;48.916;8.990;2023-08-20T03:42:40;4.10;;;3.80;;
12768;SDS011;6448;48.916;8.990;2023-08-20T03:43:41;3.70;;;3.40;;
12768;SDS011;6448;48.916;8.990;2023-08-20T03:44:42;3.70;;;3.40;;
12768;SDS011;6448;48.916;8.990;2023-08-20T03:45:43;3.65;;;3.35;;
12768;SDS011;6448;48.916;8.990;2023-08-20T03:46:45;4.18;;;3.78;;
12768;SDS011;6448;48.916;8.990;2023-08-20T03:47:48;3.80;;;3.50;;
12768;SDS011;6448;48.916;8.990;2023-08-20T03:48:51;3.50;;;3.30;;
12768;SDS011;6448;48.916;8.990;2023-08-20T03:49:52;4.20;;;3.80;;
12768;SDS011;6448;48.916;8.990;2023-08-20T03:50:53;3.83;;;3.53;;
12768;SDS011;6448;48.916;8.990;2023-08-20T03:51:54;3.53;;;3.30;;
12768;SDS011;6448;48.916;8.990;2023-08-20T03:52:56;3.80;;;3.50;;
12768;SDS011;6448;48.916;8.990;2023-08-20T03:53:57;3.78;;;3.47;;
12768;SDS011;6448;48.916;8.990;2023-08-20T03:54:59;4.10;;;3.80;;
12768;SDS011;6448;48.916;8.990;2023-08-20T03:56:00;3.40;;;3.10;;
12768;SDS011;6448;48.916;8.990;2023-08-20T03:57:01;3.45;;;3.20;;
12768;SDS011;6448;48.916;8.990;2023-08-20T03:58:03;3.70;;;3.40;;
12768;SDS011;6448;48.916;8.990;2023-08-20T03:59:04;3.58;;;3.35;;
12768;SDS011;6448;48.916;8.990;2023-08-20T04:00:06;4.28;;;3.28;;
12768;SDS011;6448;48.916;8.990;2023-08-20T04:01:15;3.70;;;3.40;;
12768;SDS011;6448;48.916;8.990;2023-08-20T04:02:16;3.63;;;3.42;;
12768;SDS011;6448;48.916;8.990;2023-08-20T04:03:19;3.28;;;3.08;;
12768;SDS011;6448;48.916;8.990;2023-08-20T04:04:20;3.45;;;3.15;;
12768;SDS011;6448;48.916;8.990;2023-08-20T04:05:22;3.33;;;3.10;;
12768;SDS011;6448;48.916;8.990;2023-08-20T04:06:23;3.80;;;3.47;;
12768;SDS011;6448;48.916;8.990;2023-08-20T04:07:25;3.47;;;3.28;;
12768;SDS011;6448;48.916;8.990;2023-08-20T04:08:26;4.00;;;3.70;;
12768;SDS011;6448;48.916;8.990;2023-08-20T04:09:29;3.88;;;3.58;;
12768;SDS011;6448;48.916;8.990;2023-08-20T04:10:30;4.05;;;3.67;;
12768;SDS011;6448;48.916;8.990;2023-08-20T04:11:32;3.88;;;3.58;;
12768;SDS011;6448;48.916;8.990;2023-08-20T04:12:33;3.30;;;3.10;;
12768;SDS011;6448;48.916;8.990;2023-08-20T04:13:34;4.03;;;3.33;;
12768;SDS011;6448;48.916;8.990;2023-08-20T04:14:36;3.50;;;3.30;;
12768;SDS011;6448;48.916;8.990;2023-08-20T04:15:38;4.03;;;3.72;;
12768;SDS011;6448;48.916;8.990;2023-08-20T04:16:39;3.50;;;3.20;;
12768;SDS011;6448;48.916;8.990;2023-08-20T04:17:40;3.58;;;3.38;;
12768;SDS011;6448;48.916;8.990;2023-08-20T04:18:43;3.50;;;3.20;;
12768;SDS011;6448;48.916;8.990;2023-08-20T04:19:44;3.60;;;3.30;;
12768;SDS011;6448;48.916;8.990;2023-08-20T04:20:46;3.20;;;3.00;;
12768;SDS011;6448;48.916;8.990;2023-08-20T04:21:48;3.78;;;3.47;;
12768;SDS011;6448;48.916;8.990;2023-08-20T04:22:51;3.60;;;3.40;;
12768;SDS011;6448;48.916;8.990;2023-08-20T04:23:52;3.60;;;3.33;;
12768;SDS011;6448;48.916;8.990;2023-08-20T04:24:54;3.70;;;3.40;;
12768;SDS011;6448;48.916;8.990;2023-08-20T04:25:54;3.50;;;3.20;;
12768;SDS011;6448;48.916;8.990;2023-08-20T04:26:56;3.70;;;3.40;;
12768;SDS011;6448;48.916;8.990;2023-08-20T04:28:00;3.72;;;3.42;;
12768;SDS011;6448;48.916;8.990;2023-08-20T04:29:02;4.00;;;3.70;;
12768;SDS011;6448;48.916;8.990;2023-08-20T04:30:05;3.80;;;3.50;;
12768;SDS011;6448;48.916;8.990;2023-08-20T04:31:08;4.10;;;3.80;;
12768;SDS011;6448;48.916;8.990;2023-08-20T04:32:21;4.40;;;4.00;;
12768;SDS011;6448;48.916;8.990;2023-08-20T04:33:24;3.65;;;3.38;;
12768;SDS011;6448;48.916;8.990;2023-08-20T04:34:28;4.20;;;3.90;;
12768;SDS011;6448;48.916;8.990;2023-08-20T04:35:30;4.30;;;4.00;;
12768;SDS011;6448;48.916;8.990;2023-08-20T04:36:32;4.22;;;3.92;;
12768;SDS011;6448;48.916;8.990;2023-08-20T04:37:33;4.80;;;3.85;;
12768;SDS011;6448;48.916;8.990;2023-08-20T04:38:35;4.33;;;4.03;;
12768;SDS011;6448;48.916;8.990;2023-08-20T04:39:37;4.45;;;4.10;;
12768;SDS011;6448;48.916;8.990;2023-08-20T04:40:37;3.50;;;3.30;;
12768;SDS011;6448;48.916;8.990;2023-08-20T04:41:39;4.03;;;3.72;;
12768;SDS011;6448;48.916;8.990;2023-08-20T04:42:45;4.10;;;3.80;;
12768;SDS011;6448;48.916;8.990;2023-08-20T04:43:48;4.13;;;3.83;;
12768;SDS011;6448;48.916;8.990;2023-08-20T04:44:51;4.38;;;4.07;;
12768;SDS011;6448;48.916;8.990;2023-08-20T04:45:53;4.00;;;3.70;;
12768;SDS011;6448;48.916;8.990;2023-08-20T04:46:55;4.25;;;3.85;;
12768;SDS011;6448;48.916;8.990;2023-08-20T04:47:59;4.60;;;4.30;;
12768;SDS011;6448;48.916;8.990;2023-08-20T04:49:00;4.10;;;3.80;;
12768;SDS011;6448;48.916;8.990;2023-08-20T04:50:04;4.43;;;4.13;;
12768;SDS011;6448;48.916;8.990;2023-08-20T04:51:07;4.20;;;3.90;;
12768;SDS011;6448;48.916;8.990;2023-08-20T04:52:09;4.35;;;3.97;;
12768;SDS011;6448;48.916;8.990;2023-08-20T04:53:10;4.03;;;3.72;;
12768;SDS011;6448;48.916;8.990;2023-08-20T04:54:11;4.20;;;3.90;;
12768;SDS011;6448;48.916;8.990;2023-08-20T04:55:13;4.18;;;3.88;;
12768;SDS011;6448;48.916;8.990;2023-08-20T04:56:15;4.05;;;3.75;;
12768;SDS011;6448;48.916;8.990;2023-08-20T04:57:17;3.72;;;3.45;;
12768;SDS011;6448;48.916;8.990;2023-08-20T04:58:18;4.30;;;3.90;;
12768;SDS011;6448;48.916;8.990;2023-08-20T04:59:20;4.00;;;3.70;;
12768;SDS011;6448;48.916;8.990;2023-08-20T05:00:41;3.95;;;3.70;;
12768;SDS011;6448;48.916;8.990;2023-08-20T05:01:47;4.70;;;4.40;;
12768;SDS011;6448;48.916;8.990;2023-08-20T05:02:48;4.13;;;3.83;;
12768;SDS011;6448;48.916;8.990;2023-08-20T05:03:52;4.40;;;4.10;;
12768;SDS011;6448;48.916;8.990;2023-08-20T05:04:53;3.70;;;3.40;;
12768;SDS011;6448;48.916;8.990;2023-08-20T05:05:56;4.03;;;3.72;;
12768;SDS011;6448;48.916;8.990;2023-08-20T05:06:57;4.00;;;3.70;;
12768;SDS011;6448;48.916;8.990;2023-08-20T05:07:59;4.15;;;3.85;;
12768;SDS011;6448;48.916;8.990;2023-08-20T05:08:59;4.20;;;3.90;;
12768;SDS011;6448;48.916;8.990;2023-08-20T05:10:01;4.20;;;3.90;;
12768;SDS011;6448;48.916;8.990;2023-08-20T05:11:03;4.28;;;3.88;;
12768;SDS011;6448;48.916;8.990;2023-08-20T05:12:07;4.00;;;3.70;;
12768;SDS011;6448;48.916;8.990;2023-08-20T05:13:09;3.92;;;3.63;;
12768;SDS011;6448;48.916;8.990;2023-08-20T05:14:11;4.07;;;3.77;;
12768;SDS011;6448;48.916;8.990;2023-08-20T05:15:12;4.27;;;3.97;;
12768;SDS011;6448;48.916;8.990;2023-08-20T05:16:14;4.53;;;4.13;;
12768;SDS011;6448;48.916;8.990;2023-08-20T05:17:15;4.47;;;4.18;;
12768;SDS011;6448;48.916;8.990;2023-08-20T05:18:18;4.27;;;3.87;;
12768;SDS011;6448;48.916;8.990;2023-08-20T05:19:18;4.50;;;4.20;;
12768;SDS011;6448;48.916;8.990;2023-08-20T05:20:20;4.43;;;4.13;;
12768;SDS011;6448;48.916;8.990;2023-08-20T05:21:22;4.50;;;4.20;;
12768;SDS011;6448;48.916;8.990;2023-08-20T05:22:24;4.47;;;4.10;;
12768;SDS011;6448;48.916;8.990;2023-08-20T05:23:25;4.30;;;4.00;;
12768;SDS011;6448;48.916;8.990;2023-08-20T05:24:27;4.53;;;4.22;;
12768;SDS011;6448;48.916;8.990;2023-08-20T05:25:27;4.43;;;4.10;;
12768;SDS011;6448;48.916;8.990;2023-08-20T05:26:30;4.70;;;4.30;;
12768;SDS011;6448;48.916;8.990;2023-08-20T05:27:31;4.60;;;4.20;;
12768;SDS011;6448;48.916;8.990;2023-08-20T05:28:32;4.40;;;4.10;;
12768;SDS011;6448;48.916;8.990;2023-08-20T05:29:33;4.30;;;4.00;;
12768;SDS011;6448;48.916;8.990;2023-08-20T05:30:35;4.43;;;4.13;;
12768;SDS011;6448;48.916;8.990;2023-08-20T05:31:37;3.90;;;3.60;;
12768;SDS011;6448;48.916;8.990;2023-08-20T05:32:37;4.20;;;3.90;;
12768;SDS011;6448;48.916;8.990;2023-08-20T05:33:38;4.10;;;3.80;;
12768;SDS011;6448;48.916;8.990;2023-08-20T05:34:40;4.00;;;3.70;;
12768;SDS011;6448;48.916;8.990;2023-08-20T05:35:41;4.53;;;4.13;;
12768;SDS011;6448;48.916;8.990;2023-08-20T05:36:46;4.88;;;4.47;;
12768;SDS011;6448;48.916;8.990;2023-08-20T05:37:47;3.90;;;3.70;;
12768;SDS011;6448;48.916;8.990;2023-08-20T05:38:49;4.45;;;4.10;;
12768;SDS011;6448;48.916;8.990;2023-08-20T05:39:50;4.53;;;4.15;;
12768;SDS011;6448;48.916;8.990;2023-08-20T05:40:53;4.22;;;3.90;;
12768;SDS011;6448;48.916;8.990;2023-08-20T05:41:54;4.10;;;3.80;;
12768;SDS011;6448;48.916;8.990;2023-08-20T05:42:57;4.28;;;3.90;;
12768;SDS011;6448;48.916;8.990;2023-08-20T05:43:58;4.53;;;4.13;;
12768;SDS011;6448;48.916;8.990;2023-08-20T05:45:00;4.40;;;4.03;;
12768;SDS011;6448;48.916;8.990;2023-08-20T05:46:02;4.28;;;3.97;;
12768;SDS011;6448;48.916;8.990;2023-08-20T05:47:04;4.35;;;3.95;;
12768;SDS011;6448;48.916;8.990;2023-08-20T05:48:06;4.35;;;3.95;;
12768;SDS011;6448;48.916;8.990;2023-08-20T05:49:07;4.47;;;4.13;;
12768;SDS011;6448;48.916;8.990;2023-08-20T05:50:09;4.13;;;3.85;;
12768;SDS011;6448;48.916;8.990;2023-08-20T05:51:11;4.00;;;3.70;;
12768;SDS011;6448;48.916;8.990;2023-08-20T05:52:15;4.45;;;4.10;;
12768;SDS011;6448;48.916;8.990;2023-08-20T05:53:17;4.43;;;4.10;;
12768;SDS011;6448;48.916;8.990;2023-08-20T05:54:20;4.13;;;3.80;;
12768;SDS011;6448;48.916;8.990;2023-08-20T05:55:25;4.68;;;4.28;;
12768;SDS011;6448;48.916;8.990;2023-08-20T05:56:28;4.40;;;4.10;;
12768;SDS011;6448;48.916;8.990;2023-08-20T05:57:30;4.50;;;4.20;;
12768;SDS011;6448;48.916;8.990;2023-08-20T05:58:32;4.50;;;4.10;;
12768;SDS011;6448;48.916;8.990;2023-08-20T05:59:34;4.68;;;4.18;;
12768;SDS011;6448;48.916;8.990;2023-08-20T06:00:36;4.60;;;4.20;;
12768;SDS011;6448;48.916;8.990;2023-08-20T06:01:37;4.25;;;3.95;;
12768;SDS011;6448;48.916;8.990;2023-08-20T06:02:38;4.40;;;4.00;;
12768;SDS011;6448;48.916;8.990;2023-08-20T06:03:40;4.00;;;3.70;;
12768;SDS011;6448;48.916;8.990;2023-08-20T06:04:41;4.28;;;3.97;;
12768;SDS011;6448;48.916;8.990;2023-08-20T06:05:42;4.50;;;4.20;;
12768;SDS011;6448;48.916;8.990;2023-08-20T06:06:44;4.50;;;4.05;;
12768;SDS011;6448;48.916;8.990;2023-08-20T06:07:46;4.60;;;4.20;;
12768;SDS011;6448;48.916;8.990;2023-08-20T06:08:47;3.87;;;3.60;;
12768;SDS011;6448;48.916;8.990;2023-08-20T06:09:48;4.60;;;4.30;;
12768;SDS011;6448;48.916;8.990;2023-08-20T06:10:50;4.20;;;3.90;;
12768;SDS011;6448;48.916;8.990;2023-08-20T06:11:52;4.40;;;4.00;;
12768;SDS011;6448;48.916;8.990;2023-08-20T06:12:53;4.85;;;4.45;;
12768;SDS011;6448;48.916;8.990;2023-08-20T06:13:54;4.60;;;4.20;;
12768;SDS011;6448;48.916;8.990;2023-08-20T06:14:55;4.60;;;4.20;;
12768;SDS011;6448;48.916;8.990;2023-08-20T06:15:57;4.80;;;4.50;;
12768;SDS011;6448;48.916;8.990;2023-08-20T06:16:58;4.35;;;4.05;;
12768;SDS011;6448;48.916;8.990;2023-08-20T06:17:58;4.70;;;4.40;;
12768;SDS011;6448;48.916;8.990;2023-08-20T06:19:00;4.85;;;4.53;;
12768;SDS011;6448;48.916;8.990;2023-08-20T06:20:01;4.50;;;4.20;;
12768;SDS011;6448;48.916;8.990;2023-08-20T06:21:05;4.68;;;4.38;;
12768;SDS011;6448;48.916;8.990;2023-08-20T06:22:06;4.82;;;4.43;;